createdAt,value
2019-03-08T00:01:04.043Z,63.73
2019-03-08T00:03:36.188Z,58.68
2019-03-08T00:06:08.240Z,54.65
2019-03-08T00:08:40.687Z,61.25
2019-03-08T00:11:12.641Z,77.55
2019-03-08T00:13:44.580Z,65.10
2019-03-08T00:16:16.564Z,52.90
2019-03-08T00:18:48.478Z,58.60
2019-03-08T00:21:20.730Z,57.80
2019-03-08T00:23:52.565Z,57.60
2019-03-08T00:26:24.416Z,64.27
2019-03-08T00:28:56.267Z,63.98
2019-03-08T00:31:28.190Z,56.77
2019-03-08T00:34:01.032Z,57.78
2019-03-08T00:36:35.720Z,54.63
2019-03-08T00:39:11.325Z,71.37
2019-03-08T00:41:43.095Z,59.38
2019-03-08T00:44:15.264Z,60.40
2019-03-08T00:46:47.054Z,55.73
2019-03-08T00:49:18.901Z,67.27
2019-03-08T00:51:50.942Z,58.02
2019-03-08T00:54:22.767Z,56.90
2019-03-08T00:56:54.564Z,55.45
2019-03-08T00:59:27.468Z,59.53
2019-03-08T01:01:59.257Z,62.33
2019-03-08T01:04:31.543Z,50.05
2019-03-08T01:07:03.732Z,50.05
2019-03-08T01:09:35.607Z,47.23
2019-03-08T01:12:07.449Z,51.23
2019-03-08T01:14:39.611Z,54.83
2019-03-08T01:17:11.386Z,53.28
2019-03-08T01:19:43.328Z,49.93
2019-03-08T01:22:15.465Z,48.42
2019-03-08T01:24:47.699Z,52.35
2019-03-08T01:27:20.844Z,54.03
2019-03-08T01:29:52.799Z,51.90
2019-03-08T01:32:24.566Z,49.03
2019-03-08T01:34:56.456Z,49.27
2019-03-08T01:37:29.071Z,45.00
2019-03-08T01:40:02.327Z,47.95
2019-03-08T01:42:35.623Z,51.73
2019-03-08T01:45:09.735Z,48.78
2019-03-08T01:47:41.633Z,43.80
2019-03-08T01:50:14.184Z,41.55
2019-03-08T01:52:47.751Z,44.10
2019-03-08T01:55:19.704Z,50.78
2019-03-08T01:57:52.308Z,49.48
2019-03-08T02:00:24.532Z,47.85
2019-03-08T02:03:05.218Z,45.45
2019-03-08T02:05:41.993Z,61.18
2019-03-08T02:08:14.057Z,56.45
2019-03-08T02:10:45.958Z,51.95
2019-03-08T02:13:19.875Z,51.58
2019-03-08T02:15:51.742Z,52.75
2019-03-08T02:18:23.591Z,51.33
2019-03-08T02:20:55.580Z,48.83
2019-03-08T02:23:38.044Z,62.10
2019-03-08T02:26:43.067Z,50.70
2019-03-08T02:29:16.048Z,52.67
2019-03-08T02:31:47.875Z,47.20
2019-03-08T02:34:20.075Z,41.60
2019-03-08T02:36:51.890Z,49.05
2019-03-08T02:39:23.691Z,47.98
2019-03-08T02:41:57.155Z,40.60
2019-03-08T02:44:30.568Z,42.23
2019-03-08T02:47:02.507Z,94.37
2019-03-08T02:49:34.318Z,60.35
2019-03-08T02:52:06.175Z,52.98
2019-03-08T02:54:38.018Z,83.85
2019-03-08T02:57:09.793Z,54.65
2019-03-08T02:59:41.779Z,60.17
2019-03-08T03:02:13.695Z,55.88
2019-03-08T03:04:45.645Z,47.93
2019-03-08T03:07:20.446Z,94.42
2019-03-08T03:09:52.272Z,51.05
2019-03-08T03:12:24.131Z,56.30
2019-03-08T03:14:56.494Z,48.40
2019-03-08T03:17:28.276Z,69.60
2019-03-08T03:20:02.823Z,111.47
2019-03-08T03:22:37.386Z,67.05
2019-03-08T03:25:09.875Z,58.08
2019-03-08T03:27:41.766Z,102.85
2019-03-08T03:30:15.660Z,54.63
2019-03-08T03:32:47.514Z,111.30
2019-03-08T03:35:19.310Z,81.53
2019-03-08T03:37:51.413Z,66.07
2019-03-08T03:40:23.327Z,110.32
2019-03-08T03:42:55.251Z,213.60
2019-03-08T03:45:33.200Z,90.62
2019-03-08T03:48:06.909Z,113.10
2019-03-08T03:50:38.740Z,156.78
2019-03-08T03:53:10.534Z,145.93
2019-03-08T03:55:42.928Z,88.65
2019-03-08T03:58:16.968Z,249.42
2019-03-08T04:00:48.763Z,159.80
2019-03-08T04:03:23.907Z,125.07
2019-03-08T04:05:55.688Z,135.55
2019-03-08T04:08:27.924Z,80.85
2019-03-08T04:11:01.117Z,60.40
2019-03-08T04:13:34.842Z,109.07
2019-03-08T04:16:07.562Z,61.95
2019-03-08T04:18:39.380Z,59.50
2019-03-08T04:21:11.192Z,111.90
2019-03-08T04:23:43.129Z,64.95
2019-03-08T04:26:15.023Z,79.70
2019-03-08T04:28:47.470Z,137.72
2019-03-08T04:31:19.401Z,86.12
2019-03-08T04:33:51.398Z,162.15
2019-03-08T04:36:23.269Z,48.78
2019-03-08T04:38:55.172Z,69.17
2019-03-08T04:41:26.983Z,96.72
2019-03-08T04:43:58.825Z,159.37
2019-03-08T04:46:33.092Z,54.80
2019-03-08T04:49:05.055Z,84.85
2019-03-08T04:51:36.966Z,49.65
2019-03-08T04:54:09.142Z,47.53
2019-03-08T04:56:41.209Z,37.35
2019-03-08T04:59:13.135Z,52.00
2019-03-08T05:01:44.945Z,83.00
2019-03-08T05:04:16.792Z,97.15
2019-03-08T05:06:48.607Z,68.78
2019-03-08T05:09:20.647Z,101.27
2019-03-08T05:11:52.460Z,54.07
2019-03-08T05:14:24.269Z,41.40
2019-03-08T05:16:59.042Z,71.13
2019-03-08T05:19:31.183Z,38.57
2019-03-08T05:22:03.003Z,39.53
2019-03-08T05:24:34.943Z,65.42
2019-03-08T05:27:06.714Z,39.92
2019-03-08T05:29:40.041Z,36.90
2019-03-08T05:32:12.002Z,35.17
2019-03-08T05:34:43.864Z,36.57
2019-03-08T05:37:15.663Z,36.23
2019-03-08T05:39:47.540Z,43.42
2019-03-08T05:42:19.368Z,30.97
2019-03-08T05:44:52.839Z,38.35
2019-03-08T05:47:24.711Z,34.58
2019-03-08T05:49:56.534Z,31.05
2019-03-08T05:52:28.357Z,39.95
2019-03-08T05:55:00.347Z,41.00
2019-03-08T05:57:32.151Z,44.90
2019-03-08T06:00:04.204Z,54.10
2019-03-08T06:02:37.196Z,46.97
2019-03-08T06:05:09.111Z,44.27
2019-03-08T06:07:41.752Z,69.00
2019-03-08T06:10:36.033Z,82.07
2019-03-08T06:13:07.996Z,78.63
2019-03-08T06:15:39.929Z,101.30
2019-03-08T06:18:14.418Z,100.53
2019-03-08T06:20:47.771Z,81.50
2019-03-08T06:23:20.596Z,76.70
2019-03-08T06:25:52.536Z,44.25
2019-03-08T06:28:24.324Z,47.10
2019-03-08T06:30:56.168Z,68.77
2019-03-08T06:33:29.629Z,61.33
2019-03-08T06:36:01.433Z,69.57
2019-03-08T06:38:34.377Z,59.90
2019-03-08T06:41:06.191Z,37.67
2019-03-08T06:43:38.297Z,36.93
2019-03-08T06:46:11.491Z,51.27
2019-03-08T06:48:43.399Z,52.23
2019-03-08T06:51:15.571Z,92.03
2019-03-08T06:53:47.404Z,40.27
2019-03-08T06:56:19.241Z,46.87
2019-03-08T06:59:14.337Z,59.03
2019-03-08T07:01:46.301Z,36.50
2019-03-08T07:04:18.095Z,29.90
2019-03-08T07:06:50.105Z,47.10
2019-03-08T07:09:22.349Z,34.30
2019-03-08T07:11:56.222Z,29.50
2019-03-08T07:14:31.265Z,38.77
2019-03-08T07:17:03.658Z,51.83
2019-03-08T07:19:41.590Z,32.83
2019-03-08T07:22:33.037Z,52.37
2019-03-08T07:25:27.272Z,27.77
2019-03-08T07:28:27.038Z,86.73
2019-03-08T07:31:21.221Z,50.13
2019-03-08T07:34:13.619Z,23.07
2019-03-08T07:37:11.169Z,64.70
2019-03-08T07:40:01.857Z,42.33
2019-03-08T07:42:52.560Z,48.13
2019-03-08T07:45:44.198Z,30.53
2019-03-08T07:48:44.098Z,32.27
2019-03-08T07:51:28.498Z,33.33
2019-03-08T07:54:18.246Z,45.27
2019-03-08T07:57:08.495Z,57.43
2019-03-08T07:59:55.553Z,30.50
2019-03-08T08:02:33.929Z,20.07
2019-03-08T08:05:19.481Z,44.53
2019-03-08T08:08:20.192Z,25.95
2019-03-08T08:11:25.942Z,63.83
2019-03-08T08:14:29.540Z,22.73
2019-03-08T08:17:26.240Z,40.10
2019-03-08T08:20:16.339Z,33.88
2019-03-08T08:23:00.484Z,54.53
2019-03-08T08:25:53.083Z,34.80
2019-03-08T08:28:34.406Z,85.32
2019-03-08T08:31:34.651Z,40.28
2019-03-08T08:34:31.272Z,31.07
2019-03-08T08:37:28.475Z,34.45
2019-03-08T08:40:18.331Z,29.35
2019-03-08T08:43:15.115Z,25.95
2019-03-08T08:46:15.768Z,36.95
2019-03-08T08:49:09.269Z,33.73
2019-03-08T08:52:07.029Z,21.05
2019-03-08T08:55:08.373Z,20.97
2019-03-08T08:57:59.192Z,20.43
2019-03-08T09:00:49.849Z,16.90
2019-03-08T09:03:34.836Z,12.88
2019-03-08T09:06:26.185Z,19.62
2019-03-08T09:09:16.970Z,13.90
2019-03-08T09:12:12.453Z,21.40
2019-03-08T09:14:50.913Z,29.72
2019-03-08T09:17:30.260Z,23.77
2019-03-08T09:20:29.809Z,21.97
2019-03-08T09:23:09.431Z,26.73
2019-03-08T09:25:57.597Z,29.87
2019-03-08T09:28:54.275Z,31.33
2019-03-08T09:31:53.949Z,22.65
2019-03-08T09:34:52.396Z,21.23
2019-03-08T09:37:43.265Z,18.77
2019-03-08T09:40:34.368Z,19.30
2019-03-08T09:43:28.694Z,18.45
2019-03-08T09:46:25.895Z,15.28
2019-03-08T09:49:25.441Z,19.12
2019-03-08T09:52:16.207Z,17.45
2019-03-08T09:55:03.135Z,16.90
2019-03-08T09:58:09.642Z,14.43
2019-03-08T10:00:50.576Z,18.42
2019-03-08T10:03:33.189Z,15.93
2019-03-08T10:06:24.117Z,15.43
2019-03-08T10:09:10.416Z,10.98
2019-03-08T10:12:07.104Z,12.25
2019-03-08T10:14:56.667Z,10.85
2019-03-08T10:17:50.355Z,10.82
2019-03-08T10:20:39.688Z,10.38
2019-03-08T10:23:20.350Z,11.08
2019-03-08T10:26:12.416Z,15.25
2019-03-08T10:28:56.498Z,10.28
2019-03-08T10:31:50.561Z,8.73
2019-03-08T10:34:56.809Z,10.20
2019-03-08T10:37:47.496Z,8.03
2019-03-08T10:40:36.736Z,8.50
2019-03-08T10:43:23.574Z,5.15
2019-03-08T10:46:16.559Z,7.90
2019-03-08T10:49:16.311Z,6.75
2019-03-08T10:52:17.264Z,11.80
2019-03-08T10:55:17.623Z,9.35
2019-03-08T10:58:15.709Z,9.43
2019-03-08T11:01:10.362Z,106.03
2019-03-08T11:04:06.860Z,11.63
2019-03-08T11:06:55.499Z,18.20
2019-03-08T11:09:49.371Z,5.83
2019-03-08T11:12:46.234Z,5.15
2019-03-08T11:15:36.718Z,5.12
2019-03-08T11:18:45.733Z,5.72
2019-03-08T11:21:31.244Z,5.55
2019-03-08T11:24:20.664Z,6.10
2019-03-08T11:27:10.052Z,8.88
2019-03-08T11:30:03.411Z,7.92
2019-03-08T11:32:54.241Z,6.33
2019-03-08T11:35:43.613Z,5.00
2019-03-08T11:38:27.883Z,3.75
2019-03-08T11:41:31.264Z,5.17
2019-03-08T11:44:30.801Z,8.40
2019-03-08T11:47:24.080Z,12.18
2019-03-08T11:50:24.111Z,8.55
2019-03-08T11:53:21.456Z,29.65
2019-03-08T11:56:18.550Z,50.28
2019-03-08T11:59:12.239Z,12.73
2019-03-08T12:02:07.821Z,9.40
2019-03-08T12:04:58.237Z,10.63
2019-03-08T12:07:52.124Z,8.83
2019-03-08T12:10:43.177Z,9.00
2019-03-08T12:13:39.882Z,6.78
2019-03-08T12:16:34.429Z,6.87
2019-03-08T12:19:43.328Z,9.23
2019-03-08T12:22:45.863Z,10.53
2019-03-08T12:25:54.655Z,9.20
2019-03-08T12:29:02.471Z,8.15
2019-03-08T12:31:53.295Z,8.08
2019-03-08T12:34:44.324Z,9.78
2019-03-08T12:37:37.095Z,7.22
2019-03-08T12:40:35.880Z,8.73
2019-03-08T12:43:26.595Z,8.13
2019-03-08T12:46:25.716Z,7.10
2019-03-08T12:49:20.368Z,8.08
2019-03-08T12:52:07.806Z,5.47
2019-03-08T12:55:10.522Z,7.70
2019-03-08T12:58:04.203Z,8.28
2019-03-08T13:00:43.169Z,10.15
2019-03-08T13:03:45.950Z,8.63
2019-03-08T13:06:52.785Z,8.95
2019-03-08T13:09:52.590Z,5.42
2019-03-08T13:12:24.423Z,11.10
2019-03-08T13:14:57.742Z,7.33
2019-03-08T13:17:29.548Z,6.22
2019-03-08T13:20:01.376Z,6.00
2019-03-08T13:22:38.058Z,12.07
2019-03-08T13:25:10.116Z,10.10
2019-03-08T13:27:43.165Z,52.90
2019-03-08T13:30:18.187Z,26.35
2019-03-08T13:32:54.428Z,6.97
2019-03-08T13:35:28.558Z,9.30
2019-03-08T13:38:00.624Z,6.55
2019-03-08T13:40:32.470Z,6.65
2019-03-08T13:43:04.448Z,6.37
2019-03-08T13:45:36.256Z,7.90
2019-03-08T13:48:09.952Z,6.55
2019-03-08T13:50:41.720Z,3.92
2019-03-08T13:53:13.529Z,5.20
2019-03-08T13:55:45.336Z,7.15
2019-03-08T13:58:17.153Z,7.50
2019-03-08T14:00:50.242Z,5.58
2019-03-08T14:03:23.736Z,3.40
2019-03-08T14:05:55.593Z,2.95
2019-03-08T14:08:27.407Z,3.17
2019-03-08T14:10:59.226Z,3.98
2019-03-08T14:13:31.079Z,4.50
2019-03-08T14:16:03.283Z,4.12
2019-03-08T14:18:35.096Z,6.12
2019-03-08T14:21:07.014Z,26.48
2019-03-08T14:23:39.384Z,9.10
2019-03-08T14:26:11.192Z,5.97
2019-03-08T14:28:42.963Z,8.33
2019-03-08T14:31:21.794Z,6.83
2019-03-08T14:33:53.573Z,12.50
2019-03-08T14:36:25.406Z,7.30
2019-03-08T14:38:57.546Z,6.40
2019-03-08T14:41:43.232Z,8.08
2019-03-08T14:44:38.824Z,9.75
2019-03-08T14:47:32.793Z,6.50
2019-03-08T14:50:02.708Z,6.50
2019-03-08T14:52:36.411Z,11.73
2019-03-08T14:55:11.138Z,17.48
2019-03-08T14:57:42.912Z,10.38
2019-03-08T15:00:33.081Z,12.20
2019-03-08T15:03:04.993Z,10.35
2019-03-08T15:05:38.590Z,9.30
2019-03-08T15:08:13.746Z,8.30
2019-03-08T15:10:47.223Z,9.05
2019-03-08T15:13:20.077Z,7.42
2019-03-08T15:15:53.293Z,7.83
2019-03-08T15:18:25.955Z,7.40
2019-03-08T15:21:00.069Z,6.22
2019-03-08T15:23:32.181Z,8.90
2019-03-08T15:26:04.296Z,11.38
2019-03-08T15:28:36.198Z,10.82
2019-03-08T15:31:08.410Z,10.30
2019-03-08T15:33:40.281Z,11.80
2019-03-08T15:36:13.615Z,10.38
2019-03-08T15:38:45.683Z,7.85
2019-03-08T15:41:17.554Z,13.80
2019-03-08T15:43:51.230Z,11.73
2019-03-08T15:46:26.753Z,12.15
2019-03-08T15:48:58.242Z,9.70
2019-03-08T15:51:30.012Z,12.60
2019-03-08T15:54:01.879Z,12.90
2019-03-08T15:56:33.694Z,12.20
2019-03-08T15:59:05.621Z,9.48
2019-03-08T16:01:39.173Z,8.23
2019-03-08T16:04:13.071Z,11.08
2019-03-08T16:06:45.426Z,9.63
2019-03-08T16:09:17.390Z,11.08
2019-03-08T16:11:49.229Z,7.12
2019-03-08T16:14:21.058Z,6.62
2019-03-08T16:16:54.621Z,10.45
2019-03-08T16:19:27.596Z,7.40
2019-03-08T16:21:59.448Z,8.25
2019-03-08T16:24:32.656Z,15.90
2019-03-08T16:27:04.878Z,11.05
2019-03-08T16:29:36.693Z,9.13
2019-03-08T16:32:31.538Z,10.25
2019-03-08T16:35:04.257Z,13.32
2019-03-08T16:37:58.449Z,12.03
2019-03-08T16:40:48.932Z,8.68
2019-03-08T16:43:42.016Z,9.48
2019-03-08T16:46:28.323Z,8.23
2019-03-08T16:49:14.798Z,11.38
2019-03-08T16:52:08.588Z,11.43
2019-03-08T16:55:11.257Z,12.98
2019-03-08T16:57:53.469Z,10.35
2019-03-08T17:00:43.018Z,13.90
2019-03-08T17:03:25.434Z,10.85
2019-03-08T17:06:26.331Z,11.00
2019-03-08T17:09:10.429Z,8.68
2019-03-08T17:12:01.586Z,9.43
2019-03-08T17:15:07.966Z,11.15
2019-03-08T17:18:07.453Z,12.47
2019-03-08T17:20:48.702Z,20.50
2019-03-08T17:23:51.690Z,15.08
2019-03-08T17:26:35.590Z,20.65
2019-03-08T17:29:13.926Z,16.60
2019-03-08T17:32:04.707Z,17.77
2019-03-08T17:35:06.323Z,18.48
2019-03-08T17:37:50.722Z,16.02
2019-03-08T17:40:47.496Z,18.73
2019-03-08T17:43:53.969Z,15.43
2019-03-08T17:46:40.683Z,17.95
2019-03-08T17:49:32.170Z,18.20
2019-03-08T17:52:14.444Z,17.70
2019-03-08T17:55:15.032Z,23.00
2019-03-08T17:58:18.245Z,22.30
2019-03-08T18:01:09.026Z,18.27
2019-03-08T18:03:55.532Z,19.23
2019-03-08T18:06:40.186Z,16.70
2019-03-08T18:09:24.969Z,18.42
2019-03-08T18:12:14.568Z,17.60
2019-03-08T18:15:02.930Z,12.95
2019-03-08T18:17:53.985Z,17.98
2019-03-08T18:20:49.409Z,19.80
2019-03-08T18:23:31.371Z,19.30
2019-03-08T18:26:43.772Z,20.15
2019-03-08T18:29:33.474Z,21.85
2019-03-08T18:32:33.429Z,26.35
2019-03-08T18:35:23.734Z,27.25
2019-03-08T18:38:14.279Z,22.73
2019-03-08T18:41:05.299Z,23.22
2019-03-08T18:44:06.960Z,14.20
2019-03-08T18:47:07.047Z,22.55
2019-03-08T18:50:07.031Z,20.35
2019-03-08T18:53:12.884Z,21.40
2019-03-08T18:56:12.651Z,24.77
2019-03-08T18:59:06.712Z,23.90
2019-03-08T19:02:04.466Z,18.52
2019-03-08T19:05:01.383Z,19.52
2019-03-08T19:08:15.563Z,19.80
2019-03-08T19:11:11.328Z,19.27
2019-03-08T19:14:02.318Z,19.42
2019-03-08T19:16:53.361Z,17.95
2019-03-08T19:19:53.257Z,13.95
2019-03-08T19:23:06.680Z,25.00
2019-03-08T19:26:10.467Z,14.98
2019-03-08T19:29:00.955Z,16.57
2019-03-08T19:31:38.781Z,19.48
2019-03-08T19:34:28.484Z,20.15
2019-03-08T19:37:20.152Z,17.00
2019-03-08T19:40:09.880Z,20.65
2019-03-08T19:43:06.994Z,20.75
2019-03-08T19:45:58.128Z,15.35
2019-03-08T19:48:47.449Z,18.27
2019-03-08T19:51:39.147Z,21.20
2019-03-08T19:54:19.039Z,23.65
2019-03-08T19:57:17.560Z,23.25
2019-03-08T20:00:07.713Z,25.25
2019-03-08T20:03:07.938Z,17.85
2019-03-08T20:05:48.116Z,17.10
2019-03-08T20:08:45.304Z,18.55
2019-03-08T20:11:45.173Z,19.15
2019-03-08T20:14:39.347Z,18.00
2019-03-08T20:17:46.593Z,29.27
2019-03-08T20:20:50.234Z,25.10
2019-03-08T20:23:53.624Z,26.48
2019-03-08T20:26:50.230Z,20.08
2019-03-08T20:29:45.903Z,23.80
2019-03-08T20:32:40.144Z,26.35
2019-03-08T20:35:23.668Z,31.02
2019-03-08T20:38:13.278Z,22.73
2019-03-08T20:40:54.874Z,27.25
2019-03-08T20:43:41.129Z,30.60
2019-03-08T20:46:19.905Z,25.68
2019-03-08T20:48:52.019Z,27.52
2019-03-08T20:51:24.753Z,24.65
2019-03-08T20:54:00.737Z,21.57
2019-03-08T20:56:39.427Z,42.98
2019-03-08T20:59:12.270Z,90.25
2019-03-08T21:01:44.232Z,32.60
2019-03-08T21:04:17.867Z,28.12
2019-03-08T21:06:51.303Z,36.65
2019-03-08T21:09:23.519Z,35.68
2019-03-08T21:11:55.993Z,33.90
2019-03-08T21:14:28.265Z,30.65
2019-03-08T21:17:02.822Z,24.82
2019-03-08T21:19:36.118Z,26.15
2019-03-08T21:22:08.148Z,25.32
2019-03-08T21:24:40.105Z,29.72
2019-03-08T21:27:16.785Z,24.95
2019-03-08T21:29:49.373Z,20.72
2019-03-08T21:32:21.714Z,24.85
2019-03-08T21:34:53.611Z,29.85
2019-03-08T21:37:25.671Z,27.02
2019-03-08T21:40:00.742Z,29.80
2019-03-08T21:42:36.986Z,29.32
2019-03-08T21:45:10.726Z,26.55
2019-03-08T21:47:42.858Z,37.25
2019-03-08T21:50:18.276Z,31.35
2019-03-08T21:52:50.281Z,28.27
2019-03-08T21:55:22.211Z,30.95
2019-03-08T21:57:55.260Z,29.23
2019-03-08T22:00:28.127Z,28.15
2019-03-08T22:03:02.129Z,28.87
2019-03-08T22:05:38.465Z,25.57
2019-03-08T22:08:17.238Z,36.30
2019-03-08T22:10:59.933Z,26.40
2019-03-08T22:13:35.579Z,29.42
2019-03-08T22:16:08.244Z,27.35
2019-03-08T22:18:40.451Z,29.37
2019-03-08T22:21:12.852Z,27.85
2019-03-08T22:23:44.813Z,32.93
2019-03-08T22:26:16.907Z,26.60
2019-03-08T22:28:51.261Z,35.05
2019-03-08T22:31:23.217Z,36.85
2019-03-08T22:33:55.191Z,30.20
2019-03-08T22:36:29.352Z,30.32
2019-03-08T22:39:01.338Z,32.75
2019-03-08T22:41:35.656Z,35.08
2019-03-08T22:44:08.481Z,34.15
2019-03-08T22:46:45.198Z,37.03
2019-03-08T22:49:14.821Z,34.80
2019-03-08T22:51:57.402Z,31.12
2019-03-08T22:54:35.864Z,30.88
2019-03-08T22:57:07.815Z,36.40
2019-03-08T22:59:39.648Z,26.97
2019-03-08T23:02:11.690Z,38.70
2019-03-08T23:04:43.911Z,31.07
2019-03-08T23:07:15.715Z,32.80
2019-03-08T23:09:50.614Z,33.45
2019-03-08T23:12:22.490Z,31.02
2019-03-08T23:14:54.395Z,29.30
2019-03-08T23:17:26.256Z,31.02
2019-03-08T23:19:58.134Z,41.77
2019-03-08T23:22:30.311Z,38.05
2019-03-08T23:25:04.849Z,37.83
2019-03-08T23:27:41.843Z,41.45
2019-03-08T23:30:18.509Z,38.45
2019-03-08T23:32:54.246Z,43.00
2019-03-08T23:35:26.065Z,42.90
2019-03-08T23:38:01.196Z,41.58
2019-03-08T23:40:35.680Z,35.70
2019-03-08T23:43:10.112Z,44.70
2019-03-08T23:45:41.956Z,49.83
2019-03-08T23:48:13.985Z,41.75
2019-03-08T23:50:46.339Z,38.40
2019-03-08T23:53:18.125Z,39.50
2019-03-08T23:55:51.707Z,33.00
2019-03-08T23:58:23.900Z,31.33
